Time;durP1;ratioP1;P1;durP2;ratioP2;P2;SDS_P1;SDS_P2;PMS_P1;PMS_P2;Temp;Humidity;BMP_temperature;BMP_pressure;BME280_temperature;BME280_humidity;BME280_pressure;Samples;Min_cycle;Max_cycle;Signal;HPM_P1;HPM_P2
2022/12/05 00:01:19;;;;;;;5.43;2.38;;;154.20;2252.80;;;;;;5011590;28;20038;-77
2022/12/05 00:03:46;;;;;;;7.93;1.90;;;154.10;2252.80;;;;;;5015557;28;20045;-78
2022/12/05 00:06:12;;;;;;;3.03;1.55;;;154.20;2252.80;;;;;;5031524;28;20088;-78
2022/12/05 00:08:37;;;;;;;;;;;154.10;2252.80;;;;;;5025804;28;20482;-78
2022/12/05 00:11:03;;;;;;;3.53;2.08;;;154.10;2252.80;;;;;;5013097;28;20288;-78
2022/12/05 00:13:29;;;;;;;;;;;154.10;2252.80;;;;;;5013035;28;20032;-77
2022/12/05 00:15:54;;;;;;;2.95;1.50;;;154.10;2252.80;;;;;;5012991;28;20003;-78
2022/12/05 00:18:20;;;;;;;;;;;154.10;2252.80;;;;;;5013542;28;20017;-78
2022/12/05 00:20:47;;;;;;;4.35;2.28;;;154.10;2252.80;;;;;;5015140;28;19973;-78
2022/12/05 00:23:13;;;;;;;4.72;2.33;;;154.10;2252.80;;;;;;5005280;28;20042;-78
2022/12/05 00:25:39;;;;;;;;;;;154.10;2252.80;;;;;;5022588;28;20079;-77
2022/12/05 00:28:05;;;;;;;3.30;1.50;;;154.10;2252.80;;;;;;5000302;28;19992;-78
2022/12/05 00:30:30;;;;;;;;;;;154.10;2252.80;;;;;;5000719;28;20029;-77
2022/12/05 00:32:56;;;;;;;2.67;1.70;;;154.10;2252.80;;;;;;5003934;28;20063;-77
2022/12/05 00:35:22;;;;;;;1.95;1.30;;;154.10;2252.80;;;;;;5024153;28;20397;-77
2022/12/05 00:37:48;;;;;;;;;;;154.10;2252.80;;;;;;5026397;28;20037;-75
2022/12/05 00:40:14;;;;;;;2.85;1.08;;;154.10;2252.80;;;;;;5008010;28;19905;-77
2022/12/05 00:42:40;;;;;;;;;;;154.40;2252.80;;;;;;5027779;28;20036;-78
2022/12/05 00:45:06;;;;;;;5.13;1.80;;;154.10;2252.80;;;;;;5020061;28;19909;-77
2022/12/05 00:47:35;;;;;;;1.58;1.00;;;154.10;2252.80;;;;;;5015909;28;20029;-78
2022/12/05 00:50:03;;;;;;;7.15;1.27;;;154.10;2252.80;;;;;;5006184;28;20129;-77
2022/12/05 00:52:29;;;;;;;6.47;1.73;;;154.20;2252.80;;;;;;5003635;28;20044;-76
2022/12/05 00:54:54;;;;;;;;;;;154.20;2252.80;;;;;;5011485;28;20124;-77
2022/12/05 00:57:20;;;;;;;2.13;1.20;;;154.20;2252.80;;;;;;5025113;28;19913;-78
2022/12/05 00:59:45;;;;;;;;;;;154.20;2252.80;;;;;;5007944;28;20037;-78
2022/12/05 01:02:11;;;;;;;2.20;1.08;;;154.20;2252.80;;;;;;5021811;28;20344;-78
2022/12/05 01:04:37;;;;;;;;;;;154.20;2252.80;;;;;;5002315;28;20046;-78
2022/12/05 01:07:02;;;;;;;3.20;1.80;;;154.20;2252.80;;;;;;5018907;28;19960;-77
2022/12/05 01:09:28;;;;;;;;;;;154.20;2252.80;;;;;;5008485;28;20030;-78
2022/12/05 01:11:54;;;;;;;3.60;1.80;;;154.20;2252.80;;;;;;5017163;28;19909;-78
2022/12/05 01:14:21;;;;;;;;;;;154.20;2252.80;;;;;;5020600;28;20465;-78
2022/12/05 01:16:48;;;;;;;2.13;1.00;;;154.20;2252.80;;;;;;5024846;28;20246;-77
2022/12/05 01:19:19;;;;;;;4.82;1.45;;;154.20;2252.80;;;;;;5006063;28;20109;-77
2022/12/05 01:21:46;;;;;;;3.75;1.35;;;154.30;2252.80;;;;;;5005657;28;20405;-77
2022/12/05 01:24:12;;;;;;;3.25;1.33;;;154.30;2252.80;;;;;;5011089;28;20443;-77
2022/12/05 01:26:40;;;;;;;3.33;1.52;;;154.30;2252.80;;;;;;5005995;28;20128;-77
2022/12/05 01:29:06;;;;;;;2.65;1.10;;;154.30;2252.80;;;;;;5001258;28;20032;-77
2022/12/05 01:31:35;;;;;;;;;;;154.40;2252.80;;;;;;5007586;28;20022;-77
2022/12/05 01:34:04;;;;;;;3.78;1.60;;;154.40;2252.80;;;;;;5024502;28;19935;-77
2022/12/05 01:36:30;;;;;;;3.25;1.38;;;154.40;2252.80;;;;;;5030423;28;20029;-77
2022/12/05 01:38:56;;;;;;;8.82;1.65;;;154.40;2252.80;;;;;;5011568;28;20034;-77
2022/12/05 01:41:25;;;;;;;;;;;154.40;2252.80;;;;;;5003915;28;20465;-77
2022/12/05 01:44:09;;;;;;;4.65;1.27;;;154.40;2252.80;;;;;;5000207;28;20377;-78
2022/12/05 01:46:50;;;;;;;5.53;1.77;;;154.40;2252.80;;;;;;5022767;28;20026;-78
2022/12/05 01:49:17;;;;;;;3.25;1.67;;;154.40;2252.80;;;;;;5003626;28;20025;-78
2022/12/05 01:51:49;;;;;;;3.20;1.60;;;154.40;2252.80;;;;;;5008592;28;20466;-78
2022/12/05 01:54:17;;;;;;;3.65;1.25;;;154.40;2252.80;;;;;;5026440;28;20048;-78
2022/12/05 01:56:48;;;;;;;4.10;1.67;;;154.40;2252.80;;;;;;5009343;28;20431;-77
2022/12/05 01:59:16;;;;;;;4.07;1.48;;;154.40;2252.80;;;;;;5005853;28;20018;-76
2022/12/05 02:01:41;;;;;;;3.65;1.75;;;154.40;2252.80;;;;;;5006974;28;20024;-78
2022/12/05 02:04:07;;;;;;;;;;;154.40;2252.80;;;;;;5012742;28;20050;-78
2022/12/05 02:06:33;;;;;;;4.85;1.70;;;154.40;2252.80;;;;;;5028893;28;19909;-78
2022/12/05 02:08:58;;;;;;;;;;;154.40;2252.80;;;;;;5011467;28;20076;-77
2022/12/05 02:11:27;;;;;;;5.25;1.65;;;154.40;2252.80;;;;;;5011028;28;20316;-78
2022/12/05 02:14:11;;;;;;;4.65;2.22;;;154.40;2252.80;;;;;;5002801;28;20017;-78
2022/12/05 02:17:03;;;;;;;5.80;1.90;;;154.30;2252.80;;;;;;5008543;28;20154;-77
2022/12/05 02:19:50;;;;;;;5.72;2.03;;;154.30;2252.80;;;;;;5008695;28;20040;-77
2022/12/05 02:22:53;;;;;;;3.35;1.67;;;154.30;2252.80;;;;;;5019242;28;20029;-77
2022/12/05 02:25:30;;;;;;;4.22;1.42;;;154.30;2252.80;;;;;;5010763;28;20087;-77
2022/12/05 02:28:33;;;;;;;6.40;3.58;;;154.30;2252.80;;;;;;5026918;28;20030;-77
2022/12/05 02:31:11;;;;;;;4.97;1.15;;;154.30;2252.80;;;;;;5021588;28;20509;-76
2022/12/05 02:34:05;;;;;;;6.55;1.60;;;154.30;2252.80;;;;;;5021619;28;20026;-77
2022/12/05 02:36:31;;;;;;;4.82;1.95;;;154.30;2252.80;;;;;;5026480;28;20068;-77
2022/12/05 02:38:56;;;;;;;;;;;154.20;2252.80;;;;;;5028851;28;20053;-78
2022/12/05 02:41:30;;;;;;;2.67;1.25;;;154.30;2252.80;;;;;;5026619;28;19905;-78
2022/12/05 02:44:03;;;;;;;8.18;2.30;;;154.20;2252.80;;;;;;5025226;28;20124;-77
2022/12/05 02:46:32;;;;;;;6.97;1.70;;;154.30;2252.80;;;;;;5022599;28;20049;-78
2022/12/05 02:49:05;;;;;;;4.10;1.77;;;154.30;2252.80;;;;;;5028123;28;20429;-78
2022/12/05 02:51:36;;;;;;;2.22;1.48;;;154.30;2252.80;;;;;;5029745;28;20037;-78
2022/12/05 02:54:07;;;;;;;2.80;1.65;;;154.30;2252.80;;;;;;5008360;28;20053;-77
2022/12/05 02:56:36;;;;;;;5.85;2.15;;;154.30;2252.80;;;;;;5003561;28;20018;-78
2022/12/05 02:59:02;;;;;;;3.50;2.05;;;154.30;2252.80;;;;;;5026942;28;20029;-78
2022/12/05 03:01:30;;;;;;;6.47;1.85;;;154.30;2252.80;;;;;;5009430;28;20021;-78
2022/12/05 03:03:58;;;;;;;5.63;1.48;;;154.30;2252.80;;;;;;5004483;28;20033;-78
2022/12/05 03:06:27;;;;;;;4.85;1.77;;;154.30;2252.80;;;;;;4998937;28;20095;-78
2022/12/05 03:08:58;;;;;;;3.72;1.80;;;154.30;2252.80;;;;;;5020288;28;20037;-77
2022/12/05 03:11:28;;;;;;;4.28;1.70;;;154.30;2252.80;;;;;;5027653;28;20478;-78
2022/12/05 03:13:56;;;;;;;5.07;1.70;;;154.30;2252.80;;;;;;5004619;28;20052;-78
2022/12/05 03:16:32;;;;;;;4.65;1.98;;;154.30;2252.80;;;;;;5027616;28;20488;-77
2022/12/05 03:19:16;;;;;;;3.42;1.83;;;154.30;2252.80;;;;;;5016323;28;20024;-78
2022/12/05 03:21:51;;;;;;;2.80;1.48;;;154.30;2252.80;;;;;;5028082;28;20021;-78
2022/12/05 03:24:17;;;;;;;3.80;1.52;;;154.30;2252.80;;;;;;5022820;28;20139;-77
2022/12/05 03:27:00;;;;;;;;;;;154.30;2252.80;;;;;;5019862;28;20018;-78
2022/12/05 03:29:47;;;;;;;4.97;1.90;;;154.30;2252.80;;;;;;5026060;28;19916;-78
2022/12/05 03:32:26;;;;;;;3.05;1.60;;;154.30;2252.80;;;;;;5023849;28;20079;-78
2022/12/05 03:35:08;;;;;;;5.80;1.55;;;154.30;2252.80;;;;;;5016162;28;20030;-78
2022/12/05 03:37:55;;;;;;;5.45;1.95;;;154.30;2252.80;;;;;;5001414;28;20067;-77
2022/12/05 03:40:51;;;;;;;7.65;2.50;;;154.30;2252.80;;;;;;5021309;28;20382;-77
2022/12/05 03:43:33;;;;;;;3.75;1.90;;;154.30;2252.80;;;;;;5021308;28;20113;-78
2022/12/05 03:46:21;;;;;;;2.40;1.20;;;154.30;2252.80;;;;;;5004683;28;20024;-78
2022/12/05 03:48:56;;;;;;;2.78;1.60;;;154.20;2252.80;;;;;;5024758;28;20108;-78
2022/12/05 03:51:27;;;;;;;2.53;1.90;;;154.30;2252.80;;;;;;5021614;28;20022;-77
2022/12/05 03:54:02;;;;;;;3.92;1.73;;;154.30;2252.80;;;;;;5022667;28;20058;-77
2022/12/05 03:56:51;;;;;;;3.20;1.75;;;154.20;2252.80;;;;;;4997624;28;20026;-77
2022/12/05 03:59:36;;;;;;;6.22;2.08;;;154.30;2252.80;;;;;;5003381;28;20018;-77
2022/12/05 04:02:13;;;;;;;7.00;2.20;;;154.30;2252.80;;;;;;5022386;28;20017;-77
2022/12/05 04:05:04;;;;;;;2.67;1.83;;;154.30;2252.80;;;;;;5001671;28;20037;-77
2022/12/05 04:07:34;;;;;;;5.18;2.20;;;154.30;2252.80;;;;;;5002315;28;20022;-78
2022/12/05 04:10:05;;;;;;;3.78;2.08;;;154.30;2252.80;;;;;;5009729;28;20392;-77
2022/12/05 04:12:33;;;;;;;2.70;1.55;;;154.20;2252.80;;;;;;5008666;28;20117;-77
2022/12/05 04:15:21;;;;;;;2.63;1.52;;;154.20;2252.80;;;;;;5022475;28;20072;-78
2022/12/05 04:17:56;;;;;;;4.18;1.73;;;154.20;2252.80;;;;;;5028102;28;20032;-78
2022/12/05 04:23:13;;;;;;;3.05;1.77;;;154.20;2252.80;;;;;;5025430;28;20044;-78
2022/12/05 04:25:51;;;;;;;2.92;1.65;;;154.10;2252.80;;;;;;5024679;28;20025;-78
2022/12/05 04:28:35;;;;;;;4.18;2.17;;;154.10;2252.80;;;;;;5018068;28;20026;-78
2022/12/05 04:31:04;;;;;;;5.00;2.47;;;154.10;2252.80;;;;;;5022952;28;20033;-77
2022/12/05 04:33:49;;;;;;;5.90;2.05;;;154.10;2252.80;;;;;;5027190;28;20374;-76
2022/12/05 04:36:30;;;;;;;5.57;2.40;;;154.10;2252.80;;;;;;5022139;28;20084;-77
2022/12/05 04:39:17;;;;;;;5.32;2.10;;;154.10;2252.80;;;;;;5018412;28;20057;-78
2022/12/05 04:42:05;;;;;;;8.35;3.78;;;154.00;2252.80;;;;;;5018288;28;20025;-78
2022/12/05 04:44:39;;;;;;;4.25;1.92;;;154.00;2252.80;;;;;;5013077;28;20038;-78
2022/12/05 04:47:08;;;;;;;7.30;2.78;;;153.90;2252.80;;;;;;5018359;28;20050;-77
2022/12/05 04:49:35;;;;;;;5.55;2.33;;;153.90;2252.80;;;;;;5006170;28;20022;-78
2022/12/05 04:52:06;;;;;;;4.85;2.13;;;153.90;2252.80;;;;;;5032113;28;20029;-78
2022/12/05 04:55:02;;;;;;;6.05;1.88;;;153.90;2252.80;;;;;;5012000;28;20179;-78
2022/12/05 04:57:54;;;;;;;7.25;1.90;;;153.90;2252.80;;;;;;4947146;28;20035;-78
2022/12/05 05:00:20;;;;;;;5.57;2.22;;;153.90;2252.80;;;;;;4951878;29;20032;-77
2022/12/05 05:02:49;;;;;;;;;;;153.80;2252.80;;;;;;4952085;28;20035;-77
2022/12/05 05:05:18;;;;;;;7.00;1.85;;;153.80;2252.80;;;;;;4951391;28;19922;-78
2022/12/05 05:07:51;;;;;;;3.65;2.00;;;153.80;2252.80;;;;;;4955070;28;20023;-78
2022/12/05 05:10:43;;;;;;;6.57;1.90;;;153.80;2252.80;;;;;;4949101;28;20118;-78
2022/12/05 05:13:09;;;;;;;3.72;1.98;;;153.80;2252.80;;;;;;4926230;29;20050;-77
2022/12/05 05:15:34;;;;;;;;;;;153.80;2252.80;;;;;;4929308;29;20514;-77
2022/12/05 05:18:00;;;;;;;4.90;1.88;;;153.80;2252.80;;;;;;4941742;29;20013;-78
2022/12/05 05:20:26;;;;;;;;;;;153.80;2252.80;;;;;;4958420;28;20182;-77
2022/12/05 05:22:56;;;;;;;7.80;2.10;;;153.80;2252.80;;;;;;4957059;28;19914;-78
2022/12/05 05:25:24;;;;;;;4.85;2.20;;;153.80;2252.80;;;;;;4928577;29;20024;-77
2022/12/05 05:27:54;;;;;;;4.60;1.95;;;153.90;2252.80;;;;;;4957735;28;20035;-77
2022/12/05 05:30:22;;;;;;;4.75;2.20;;;153.80;2252.80;;;;;;4941138;29;20122;-77
2022/12/05 05:32:48;;;;;;;10.73;3.58;;;153.80;2252.80;;;;;;4941520;29;20035;-77
2022/12/05 05:35:14;;;;;;;;;;;153.80;2252.80;;;;;;5018806;28;20033;-77
2022/12/05 05:37:40;;;;;;;16.20;2.97;;;153.80;2252.80;;;;;;5002342;28;19909;-77
2022/12/05 05:40:09;;;;;;;7.60;1.92;;;153.80;2252.80;;;;;;5014520;28;20041;-77
2022/12/05 05:42:34;;;;;;;8.63;2.58;;;153.70;2252.80;;;;;;5029392;28;20021;-78
2022/12/05 05:45:00;;;;;;;;;;;153.80;2252.80;;;;;;5016951;28;20490;-78
2022/12/05 05:47:26;;;;;;;6.10;2.30;;;153.70;2252.80;;;;;;5020413;28;19905;-77
2022/12/05 05:49:51;;;;;;;;;;;153.70;2252.80;;;;;;5027135;28;20087;-78
2022/12/05 05:52:17;;;;;;;5.05;2.17;;;153.70;2252.80;;;;;;5012378;28;19911;-78
2022/12/05 05:54:42;;;;;;;;;;;153.70;2252.80;;;;;;5015515;28;20042;-78
2022/12/05 05:57:08;;;;;;;7.85;2.35;;;153.70;2252.80;;;;;;5035324;28;19939;-78
2022/12/05 05:59:34;;;;;;;;;;;153.60;2252.80;;;;;;5027773;28;20442;-77
2022/12/05 06:02:00;;;;;;;5.40;2.25;;;153.70;2252.80;;;;;;5030705;28;19924;-77
2022/12/05 06:04:25;;;;;;;;;;;153.60;2252.80;;;;;;5019763;28;20030;-78
2022/12/05 06:06:51;;;;;;;3.58;1.92;;;153.60;2252.80;;;;;;5027727;28;19920;-78
2022/12/05 06:09:17;;;;;;;;;;;153.60;2252.80;;;;;;5032619;28;20547;-77
2022/12/05 06:11:42;;;;;;;5.93;2.25;;;153.60;2252.80;;;;;;5017465;28;19912;-77
2022/12/05 06:14:08;;;;;;;;;;;153.60;2252.80;;;;;;5019272;28;20141;-77
2022/12/05 06:16:34;;;;;;;7.22;3.67;;;154.00;2252.80;;;;;;5020801;28;19905;-77
2022/12/05 06:18:59;;;;;;;;;;;153.60;2252.80;;;;;;5018602;28;20036;-77
2022/12/05 06:21:25;;;;;;;3.97;2.33;;;153.60;2252.80;;;;;;5017606;28;19905;-77
2022/12/05 06:23:52;;;;;;;;;;;128.80;2252.80;;;;;;5035383;28;20037;-77
2022/12/05 06:26:20;;;;;;;2.47;1.77;;;153.60;2252.80;;;;;;5017403;28;19920;-78
2022/12/05 06:28:46;;;;;;;4.95;2.10;;;153.60;2252.80;;;;;;5017335;28;20425;-77
2022/12/05 06:31:15;;;;;;;;;;;153.60;2252.80;;;;;;5011681;28;20022;-77
2022/12/05 06:33:41;;;;;;;3.40;1.83;;;153.70;2252.80;;;;;;5008347;28;19909;-78
2022/12/05 06:36:08;;;;;;;;;;;153.70;2252.80;;;;;;5003146;28;20037;-77
2022/12/05 06:38:34;;;;;;;4.60;1.98;;;153.70;2252.80;;;;;;5016577;28;19905;-78
2022/12/05 06:41:04;;;;;;;6.38;2.63;;;153.70;2252.80;;;;;;5026908;28;20040;-77
2022/12/05 06:43:30;;;;;;;6.68;3.03;;;153.70;2252.80;;;;;;5012125;28;20034;-78
2022/12/05 06:45:56;;;;;;;;;;;153.80;2252.80;;;;;;5013500;28;20033;-78
2022/12/05 06:48:22;;;;;;;6.43;2.92;;;153.80;2252.80;;;;;;5010441;28;19958;-78
2022/12/05 06:50:52;;;;;;;4.28;2.20;;;153.80;2252.80;;;;;;5005924;28;20040;-77
2022/12/05 06:53:19;;;;;;;3.53;1.80;;;153.80;2252.80;;;;;;4997755;28;20042;-77
2022/12/05 06:55:54;;;;;;;3.90;2.08;;;153.90;2252.80;;;;;;5005862;28;20088;-77
2022/12/05 06:58:19;;;;;;;6.55;2.95;;;153.90;2252.80;;;;;;5016823;28;20029;-77
2022/12/05 07:03:29;;;;;;;11.10;5.07;;;154.00;2252.80;;;;;;5020329;28;19940;-79
2022/12/05 07:05:54;;;;;;;;;;;154.00;2252.80;;;;;;5017336;28;20117;-79
2022/12/05 07:08:20;;;;;;;5.40;3.22;;;154.00;2252.80;;;;;;5011324;28;20478;-78
2022/12/05 07:10:50;;;;;;;;;;;154.00;2252.80;;;;;;5005097;28;20110;-80
2022/12/05 07:13:15;;;;;;;6.45;2.63;;;154.00;2252.80;;;;;;5016889;28;19909;-77
2022/12/05 07:15:41;;;;;;;;;;;154.00;2252.80;;;;;;5004602;28;20095;-86
2022/12/05 07:18:06;;;;;;;10.40;4.45;;;154.10;2252.80;;;;;;5010342;28;19997;-79
2022/12/05 07:20:32;;;;;;;;;;;154.10;2252.80;;;;;;5012898;28;20040;-77
2022/12/05 07:22:58;;;;;;;8.48;3.65;;;154.20;2252.80;;;;;;5007180;28;20348;-84
2022/12/05 07:25:23;;;;;;;;;;;154.20;2252.80;;;;;;4999376;28;20029;-78
2022/12/05 07:27:49;;;;;;;5.18;2.45;;;154.30;2252.80;;;;;;5016559;28;19912;-78
2022/12/05 07:30:14;;;;;;;;;;;154.40;2252.80;;;;;;5033975;28;20071;-90
2022/12/05 07:32:40;;;;;;;5.30;2.30;;;154.50;2252.80;;;;;;5015983;28;19935;-76
2022/12/05 07:35:06;;;;;;;;;;;154.50;2252.80;;;;;;5016645;28;20026;-81
2022/12/05 07:37:32;;;;;;;11.13;2.75;;;154.50;2252.80;;;;;;5016264;28;19905;-77
2022/12/05 07:39:57;;;;;;;;;;;179.20;2252.80;;;;;;5032689;28;20040;-78
2022/12/05 07:42:23;;;;;;;6.75;3.05;;;179.20;2252.80;;;;;;5019802;28;19905;-78
2022/12/05 07:44:49;;;;;;;;;;;179.30;2252.80;;;;;;5016396;28;20468;-77
2022/12/05 07:47:14;;;;;;;4.55;2.50;;;179.40;2252.80;;;;;;5015953;28;19999;-78
2022/12/05 07:49:40;;;;;;;;;;;179.40;2252.80;;;;;;5016461;28;20025;-79
2022/12/05 07:52:05;;;;;;;5.38;2.53;;;179.40;2252.80;;;;;;5032596;28;19916;-86
2022/12/05 07:54:31;;;;;;;;;;;179.40;2252.80;;;;;;5032189;28;20079;-85
2022/12/05 07:56:57;;;;;;;5.72;2.42;;;179.50;2252.80;;;;;;5023859;28;20003;-77
2022/12/05 07:59:23;;;;;;;;;;;179.50;2252.80;;;;;;5020472;28;20137;-86
2022/12/05 08:01:48;;;;;;;4.57;2.35;;;179.60;2252.80;;;;;;4998794;28;19909;-81
2022/12/05 08:04:14;;;;;;;;;;;179.70;2252.80;;;;;;5023570;28;20424;-77
2022/12/05 08:06:40;;;;;;;11.00;3.78;;;179.70;2252.80;;;;;;5013495;28;19905;-77
2022/12/05 08:09:05;;;;;;;;;;;179.70;2252.80;;;;;;5009247;28;20037;-86
2022/12/05 08:11:34;;;;;;;4.88;1.98;;;179.80;2252.80;;;;;;5013958;28;20392;-77
2022/12/05 08:14:02;;;;;;;5.97;3.38;;;179.80;2252.80;;;;;;5007800;28;20485;-87
2022/12/05 08:16:29;;;;;;;5.38;2.25;;;179.90;2252.80;;;;;;5015556;28;20036;-78
2022/12/05 08:19:00;;;;;;;6.82;2.20;;;179.90;2252.80;;;;;;5031714;28;20025;-77
2022/12/05 08:21:26;;;;;;;6.20;3.40;;;180.00;2252.80;;;;;;5033062;28;20041;-88
2022/12/05 08:23:53;;;;;;;6.35;2.22;;;180.10;2252.80;;;;;;5022302;28;20025;-78
2022/12/05 08:26:23;;;;;;;10.20;3.90;;;180.10;2252.80;;;;;;5007678;28;20029;-78
2022/12/05 08:29:01;;;;;;;13.25;5.38;;;204.80;2252.80;;;;;;5010424;28;20044;-78
2022/12/05 08:31:29;;;;;;;5.93;2.63;;;204.80;2252.80;;;;;;5020900;28;20036;-78
2022/12/05 08:33:59;;;;;;;6.35;2.90;;;204.80;2252.80;;;;;;5025681;28;20097;-77
2022/12/05 08:36:26;;;;;;;4.28;2.38;;;205.00;2252.80;;;;;;5012725;28;20053;-84
2022/12/05 08:39:00;;;;;;;3.90;1.90;;;205.00;2252.80;;;;;;5008786;28;20025;-76
2022/12/05 08:41:29;;;;;;;4.72;1.90;;;205.00;2252.80;;;;;;5000695;28;20040;-77
2022/12/05 08:44:02;;;;;;;6.07;2.40;;;205.10;2252.80;;;;;;5014679;28;20036;-78
2022/12/05 08:46:29;;;;;;;3.97;1.95;;;205.10;2252.80;;;;;;5019471;28;20050;-84
2022/12/05 08:48:55;;;;;;;4.22;2.40;;;205.20;2252.80;;;;;;5021372;28;20021;-78
2022/12/05 08:51:20;;;;;;;;;;;205.30;2252.80;;;;;;5012858;28;20026;-82
2022/12/05 08:53:46;;;;;;;5.30;3.00;;;205.30;2252.80;;;;;;5020549;28;19917;-78
2022/12/05 08:56:11;;;;;;;;;;;205.40;2252.80;;;;;;5014852;28;20040;-81
2022/12/05 08:58:38;;;;;;;13.50;5.22;;;205.50;2252.80;;;;;;5018174;28;19963;-77
2022/12/05 09:01:04;;;;;;;4.65;2.03;;;205.60;2252.80;;;;;;5014799;28;20079;-77
2022/12/05 09:03:29;;;;;;;21.75;6.72;;;205.70;2252.80;;;;;;5015042;28;20041;-77
2022/12/05 09:06:04;;;;;;;;;;;205.70;2252.80;;;;;;5033177;28;20409;-77
2022/12/05 09:08:29;;;;;;;32.05;11.20;;;230.40;2252.80;;;;;;5014648;28;19905;-79
2022/12/05 09:10:55;;;;;;;;;;;230.40;2252.80;;;;;;5033071;28;20028;-86
2022/12/05 09:13:21;;;;;;;15.40;7.60;;;230.40;2252.80;;;;;;5011166;28;19991;-86
2022/12/05 09:15:46;;;;;;;;;;;230.50;2252.80;;;;;;5008629;28;20041;-78
2022/12/05 09:18:13;;;;;;;15.15;3.83;;;230.50;2252.80;;;;;;5007625;28;20284;-77
2022/12/05 09:20:39;;;;;;;6.53;3.03;;;230.60;2252.80;;;;;;5002640;28;20024;-77
2022/12/05 09:23:04;;;;;;;8.02;3.58;;;230.70;2252.80;;;;;;5002366;28;20042;-77
2022/12/05 09:25:30;;;;;;;;;;;230.90;2252.80;;;;;;4999367;28;20022;-77
2022/12/05 09:27:56;;;;;;;5.35;2.55;;;231.00;2252.80;;;;;;5006231;28;19948;-82
2022/12/05 09:30:22;;;;;;;5.75;2.60;;;231.00;2252.80;;;;;;5025743;28;20018;-78
2022/12/05 09:32:48;;;;;;;5.75;2.70;;;231.10;2252.80;;;;;;5004053;28;20043;-76
2022/12/05 09:35:13;;;;;;;;;;;231.10;2252.80;;;;;;5031254;28;20033;-83
2022/12/05 09:37:39;;;;;;;5.88;2.75;;;231.20;2252.80;;;;;;5011322;28;20296;-78
2022/12/05 09:40:05;;;;;;;;;;;231.30;2252.80;;;;;;5013238;28;20026;-78
2022/12/05 09:43:19;;;;;;;8.52;3.78;;;256.00;2252.80;;;;;;5017489;28;20380;-79
2022/12/05 09:46:12;;;;;;;3.90;2.45;;;256.10;2252.80;;;;;;5011056;28;20041;-78
2022/12/05 09:48:39;;;;;;;5.63;3.05;;;256.30;2252.80;;;;;;5032051;28;20045;-85
2022/12/05 09:51:09;;;;;;;6.20;2.88;;;256.70;2252.80;;;;;;5011418;28;20025;-78
2022/12/05 09:53:38;;;;;;;5.43;2.92;;;256.50;2252.80;;;;;;5004215;28;20076;-81
2022/12/05 09:56:12;;;;;;;22.70;7.95;;;256.60;2252.80;;;;;;5017999;28;20116;-80
2022/12/05 09:58:52;;;;;;;16.35;8.52;;;256.70;2252.80;;;;;;5026135;28;20048;-83
2022/12/05 10:01:17;;;;;;;7.65;2.88;;;281.60;2278.40;;;;;;5016293;28;20109;-81
2022/12/05 10:04:02;;;;;;;6.65;2.50;;;281.60;2278.40;;;;;;5026883;28;20117;-87
2022/12/05 10:06:35;;;;;;;5.40;3.10;;;256.90;2252.80;;;;;;5035012;28;20029;-77
2022/12/05 10:09:38;;;;;;;5.88;2.97;;;281.80;2278.40;;;;;;5026162;28;20030;-78
2022/12/05 10:12:19;;;;;;;15.30;4.13;;;281.70;2278.40;;;;;;5025974;28;20470;-77
2022/12/05 10:14:53;;;;;;;10.50;4.30;;;281.80;2278.40;;;;;;5026836;28;20028;-78
2022/12/05 10:17:32;;;;;;;5.72;2.83;;;282.00;2278.40;;;;;;5029294;28;20026;-77
2022/12/05 10:20:01;;;;;;;8.50;4.50;;;282.00;2278.40;;;;;;5014493;28;20032;-78
2022/12/05 10:23:22;;;;;;;18.42;6.30;;;282.00;2278.40;;;;;;5002665;28;20033;-78
2022/12/05 10:25:55;;;;;;;8.48;3.42;;;282.10;2278.40;;;;;;4997897;28;20387;-82
2022/12/05 10:28:31;;;;;;;7.38;3.55;;;282.10;2278.40;;;;;;5008187;28;20029;-79
2022/12/05 10:31:00;;;;;;;;;;;282.30;2278.40;;;;;;5015412;28;20018;-81
2022/12/05 10:33:32;;;;;;;7.35;4.15;;;282.40;2278.40;;;;;;5027616;28;19913;-83
2022/12/05 10:35:58;;;;;;;11.38;4.30;;;282.50;2278.40;;;;;;5007004;28;20434;-83
2022/12/05 10:38:31;;;;;;;6.18;3.33;;;282.50;2278.40;;;;;;5008929;28;20072;-79
2022/12/05 10:41:00;;;;;;;7.47;3.35;;;282.40;2278.40;;;;;;5003557;28;20030;-78
2022/12/05 10:43:28;;;;;;;8.52;4.03;;;282.30;2278.40;;;;;;5007988;28;20052;-82
2022/12/05 10:45:54;;;;;;;9.50;5.03;;;282.50;2278.40;;;;;;5007800;28;20109;-87
2022/12/05 10:48:21;;;;;;;7.05;3.88;;;282.50;2278.40;;;;;;5002016;28;20139;-78
2022/12/05 10:50:53;;;;;;;5.53;3.42;;;282.50;2278.40;;;;;;5003499;28;20056;-85
2022/12/05 10:53:22;;;;;;;5.25;3.17;;;282.50;2278.40;;;;;;5033285;28;20048;-79
2022/12/05 10:55:50;;;;;;;6.45;3.45;;;282.50;2278.40;;;;;;5014752;28;20033;-81
2022/12/05 10:58:22;;;;;;;4.97;2.75;;;307.30;2304.00;;;;;;5025635;28;20041;-81
2022/12/05 11:00:52;;;;;;;11.25;4.80;;;307.20;2304.00;;;;;;5016816;28;20422;-80
2022/12/05 11:03:39;;;;;;;7.68;3.70;;;282.50;2278.40;;;;;;5005453;28;20053;-80
2022/12/05 11:06:24;;;;;;;7.18;3.72;;;307.30;2304.00;;;;;;5010831;28;20062;-79
2022/12/05 11:08:56;;;;;;;9.10;4.43;;;307.30;2304.00;;;;;;5011350;28;20072;-79
2022/12/05 11:11:27;;;;;;;7.65;4.03;;;307.30;2304.00;;;;;;5010769;28;20022;-79
2022/12/05 11:13:55;;;;;;;7.00;4.07;;;307.30;2304.00;;;;;;5028037;28;20021;-80
2022/12/05 11:16:36;;;;;;;6.43;3.50;;;307.30;2304.00;;;;;;5030536;28;20026;-81
2022/12/05 11:19:21;;;;;;;7.05;3.50;;;307.20;2304.00;;;;;;5011948;28;20108;-81
2022/12/05 11:21:47;;;;;;;5.75;3.45;;;307.20;2304.00;;;;;;5026632;28;20052;-78
2022/12/05 11:24:25;;;;;;;5.82;3.85;;;307.30;2304.00;;;;;;5019393;28;20034;-78
2022/12/05 11:26:50;;;;;;;8.40;3.85;;;307.30;2304.00;;;;;;5023806;28;20018;-79
2022/12/05 11:29:30;;;;;;;7.65;4.25;;;307.30;2304.00;;;;;;5016884;28;20040;-78
2022/12/05 11:31:56;;;;;;;4.47;2.58;;;307.30;2304.00;;;;;;5019023;28;20018;-79
2022/12/05 11:34:26;;;;;;;6.97;3.42;;;282.40;2278.40;;;;;;5019287;28;20084;-79
2022/12/05 11:36:58;;;;;;;5.22;3.20;;;282.50;2278.40;;;;;;5025953;28;20025;-79
2022/12/05 11:39:24;;;;;;;8.55;3.40;;;307.50;2304.00;;;;;;4999588;28;20041;-87
2022/12/05 11:42:29;;;;;;;5.90;3.60;;;282.40;2278.40;;;;;;5016159;28;20013;-79
2022/12/05 11:45:21;;;;;;;12.38;4.10;;;282.50;2278.40;;;;;;4950710;28;20054;-79
2022/12/05 11:48:13;;;;;;;10.25;3.67;;;282.50;2278.40;;;;;;4950547;28;20479;-79
2022/12/05 11:50:44;;;;;;;5.35;3.20;;;282.50;2278.40;;;;;;4966719;28;20129;-79
2022/12/05 11:53:39;;;;;;;7.68;3.47;;;282.30;2278.40;;;;;;4944490;28;20138;-79
2022/12/05 11:56:08;;;;;;;7.68;4.13;;;282.30;2278.40;;;;;;4972677;28;20060;-78
2022/12/05 11:58:48;;;;;;;9.77;4.70;;;282.40;2278.40;;;;;;4956895;28;20439;-78
2022/12/05 12:01:34;;;;;;;10.52;4.20;;;282.40;2278.40;;;;;;4953280;28;20023;-79
2022/12/05 12:04:16;;;;;;;7.68;4.00;;;282.40;2278.40;;;;;;4971774;28;20095;-78
2022/12/05 12:07:19;;;;;;;9.65;3.83;;;282.30;2278.40;;;;;;4972559;28;20500;-79
2022/12/05 12:10:05;;;;;;;9.57;4.47;;;282.20;2278.40;;;;;;4972899;28;20424;-78
2022/12/05 12:12:52;;;;;;;9.90;3.70;;;282.20;2278.40;;;;;;4961100;28;20035;-78
2022/12/05 12:15:33;;;;;;;9.43;3.78;;;282.20;2278.40;;;;;;4962327;28;20041;-78
2022/12/05 12:18:08;;;;;;;8.00;3.70;;;282.10;2278.40;;;;;;4968477;28;20114;-77
2022/12/05 12:20:52;;;;;;;8.48;4.80;;;282.10;2278.40;;;;;;4976955;28;20033;-78
2022/12/05 12:23:29;;;;;;;12.18;5.97;;;282.00;2278.40;;;;;;5000840;28;20393;-78
2022/12/05 12:26:34;;;;;;;10.98;5.22;;;282.10;2278.40;;;;;;4998749;28;20030;-79
2022/12/05 12:29:22;;;;;;;9.45;3.97;;;282.10;2278.40;;;;;;4972701;28;20026;-78
2022/12/05 12:32:01;;;;;;;7.70;3.83;;;282.10;2278.40;;;;;;5003448;28;20027;-78
2022/12/05 12:34:38;;;;;;;9.88;4.95;;;282.00;2278.40;;;;;;4993319;28;20029;-78
2022/12/05 12:37:08;;;;;;;10.88;5.40;;;282.10;2278.40;;;;;;5000417;28;20026;-79
2022/12/05 12:40:15;;;;;;;8.35;4.68;;;282.00;2278.40;;;;;;5013419;28;20056;-78
2022/12/05 12:42:46;;;;;;;12.45;4.95;;;282.10;2278.40;;;;;;4972214;28;20070;-79
2022/12/05 12:45:19;;;;;;;7.68;3.47;;;282.10;2278.40;;;;;;4971788;28;20069;-79
2022/12/05 12:48:08;;;;;;;12.30;4.38;;;282.00;2278.40;;;;;;4972296;28;20082;-78
2022/12/05 12:50:39;;;;;;;6.38;3.15;;;282.00;2278.40;;;;;;4971063;28;20121;-78
2022/12/05 12:53:17;;;;;;;9.05;4.13;;;282.00;2278.40;;;;;;4974858;28;20047;-81
2022/12/05 12:55:55;;;;;;;8.48;4.25;;;282.00;2278.40;;;;;;4974078;28;20170;-78
2022/12/05 12:58:45;;;;;;;12.45;4.32;;;282.00;2278.40;;;;;;4987808;28;20030;-78
2022/12/05 13:01:17;;;;;;;6.25;3.78;;;282.10;2278.40;;;;;;4971558;28;20022;-81